createdAt,value
2018-12-22T00:01:28.059Z,6.22
2018-12-22T00:03:57.339Z,6.50
2018-12-22T00:06:26.628Z,6.53
2018-12-22T00:08:55.912Z,6.50
2018-12-22T00:11:25.243Z,6.53
2018-12-22T00:13:54.551Z,6.73
2018-12-22T00:16:23.835Z,6.30
2018-12-22T00:18:53.115Z,6.67
2018-12-22T00:21:22.038Z,6.17
2018-12-22T00:23:50.908Z,7.27
2018-12-22T00:26:19.719Z,8.10
2018-12-22T00:28:48.936Z,6.80
2018-12-22T00:31:18.219Z,6.83
2018-12-22T00:33:47.477Z,7.30
2018-12-22T00:36:16.912Z,5.83
2018-12-22T00:38:46.287Z,7.73
2018-12-22T00:41:15.550Z,7.57
2018-12-22T00:43:45.162Z,8.07
2018-12-22T00:46:14.339Z,6.47
2018-12-22T00:48:46.659Z,8.30
2018-12-22T00:51:15.999Z,7.83
2018-12-22T00:53:45.638Z,6.83
2018-12-22T00:56:14.531Z,7.13
2018-12-22T00:58:43.865Z,6.27
2018-12-22T01:01:13.108Z,8.70
2018-12-22T01:03:41.987Z,7.60
2018-12-22T01:06:11.161Z,7.80
2018-12-22T01:08:40.410Z,7.03
2018-12-22T01:11:09.721Z,6.67
2018-12-22T01:13:39.053Z,8.93
2018-12-22T01:16:08.318Z,7.50
2018-12-22T01:18:37.591Z,7.50
2018-12-22T01:21:06.947Z,7.50
2018-12-22T01:23:36.251Z,8.08
2018-12-22T01:26:05.162Z,7.80
2018-12-22T01:28:39.407Z,7.25
2018-12-22T01:31:05.685Z,8.63
2018-12-22T01:33:35.367Z,7.13
2018-12-22T01:36:04.906Z,8.20
2018-12-22T01:38:34.138Z,7.45
2018-12-22T01:41:03.459Z,8.63
2018-12-22T01:43:32.355Z,7.20
2018-12-22T01:46:01.690Z,7.13
2018-12-22T01:48:31.027Z,7.40
2018-12-22T01:51:00.571Z,7.45
2018-12-22T01:53:29.526Z,6.95
2018-12-22T01:56:04.755Z,6.83
2018-12-22T01:58:33.930Z,6.33
2018-12-22T02:01:03.559Z,7.73
2018-12-22T02:03:32.398Z,6.93
2018-12-22T02:06:01.189Z,7.77
2018-12-22T02:08:30.374Z,6.85
2018-12-22T02:10:59.687Z,6.30
2018-12-22T02:13:28.945Z,7.00
2018-12-22T02:15:58.265Z,6.30
2018-12-22T02:18:27.528Z,6.53
2018-12-22T02:20:56.799Z,7.23
2018-12-22T02:23:25.694Z,7.15
2018-12-22T02:25:54.859Z,6.80
2018-12-22T02:28:24.155Z,6.27
2018-12-22T02:30:53.137Z,6.80
2018-12-22T02:33:22.342Z,6.60
2018-12-22T02:35:51.231Z,5.87
2018-12-22T02:38:20.416Z,5.60
2018-12-22T02:40:49.720Z,6.60
2018-12-22T02:43:18.984Z,6.50
2018-12-22T02:45:48.251Z,6.60
2018-12-22T02:48:17.509Z,7.00
2018-12-22T02:50:46.879Z,6.87
2018-12-22T02:53:16.285Z,6.07
2018-12-22T02:55:45.201Z,6.80
2018-12-22T02:58:14.369Z,6.03
2018-12-22T03:00:43.676Z,6.00
2018-12-22T03:03:12.574Z,6.23
2018-12-22T03:05:41.390Z,6.93
2018-12-22T03:08:10.612Z,6.23
2018-12-22T03:10:39.879Z,6.43
2018-12-22T03:13:09.124Z,5.47
2018-12-22T03:15:38.416Z,7.67
2018-12-22T03:18:07.719Z,7.10
2018-12-22T03:20:36.986Z,5.47
2018-12-22T03:23:06.291Z,5.20
2018-12-22T03:25:35.190Z,5.90
2018-12-22T03:28:04.373Z,5.43
2018-12-22T03:30:33.261Z,5.30
2018-12-22T03:33:02.539Z,6.17
2018-12-22T03:35:31.527Z,5.33
2018-12-22T03:38:00.371Z,4.67
2018-12-22T03:40:29.679Z,5.87
2018-12-22T03:42:58.942Z,5.33
2018-12-22T03:45:28.271Z,4.97
2018-12-22T03:47:57.523Z,5.83
2018-12-22T03:50:26.791Z,5.15
2018-12-22T03:52:56.056Z,4.87
2018-12-22T03:55:25.406Z,4.57
2018-12-22T03:57:54.321Z,5.90
2018-12-22T04:00:23.143Z,5.10
2018-12-22T04:02:52.485Z,5.53
2018-12-22T04:05:21.736Z,5.13
2018-12-22T04:07:57.325Z,4.73
2018-12-22T04:10:26.736Z,4.87
2018-12-22T04:12:55.984Z,5.83
2018-12-22T04:15:24.966Z,5.10
2018-12-22T04:17:54.149Z,4.23
2018-12-22T04:20:23.022Z,6.53
2018-12-22T04:22:52.236Z,4.10
2018-12-22T04:25:21.510Z,4.93
2018-12-22T04:27:50.951Z,4.90
2018-12-22T04:30:20.418Z,4.27
2018-12-22T04:32:49.647Z,5.50
2018-12-22T04:35:19.193Z,5.37
2018-12-22T04:37:48.123Z,4.30
2018-12-22T04:40:17.384Z,5.90
2018-12-22T04:42:46.668Z,5.13
2018-12-22T04:45:15.974Z,4.33
2018-12-22T04:47:45.271Z,5.07
2018-12-22T04:50:14.182Z,5.70
2018-12-22T04:52:43.367Z,4.90
2018-12-22T04:55:12.785Z,4.87
2018-12-22T04:57:41.702Z,5.00
2018-12-22T05:00:11.559Z,5.50
2018-12-22T05:02:40.860Z,6.27
2018-12-22T05:05:10.125Z,5.30
2018-12-22T05:07:39.435Z,6.73
2018-12-22T05:10:09.503Z,5.13
2018-12-22T05:12:38.779Z,6.23
2018-12-22T05:15:09.446Z,5.83
2018-12-22T05:17:40.175Z,6.63
2018-12-22T05:20:09.480Z,5.97
2018-12-22T05:22:38.824Z,7.63
2018-12-22T05:25:08.124Z,6.37
2018-12-22T05:27:37.035Z,6.53
2018-12-22T05:30:06.742Z,6.13
2018-12-22T05:32:35.911Z,6.33
2018-12-22T05:35:05.027Z,8.67
2018-12-22T05:37:34.216Z,5.80
2018-12-22T05:40:03.675Z,6.20
2018-12-22T05:42:32.927Z,8.60
2018-12-22T05:45:02.190Z,6.43
2018-12-22T05:47:31.106Z,6.60
2018-12-22T05:50:00.306Z,5.53
2018-12-22T05:52:29.931Z,6.85
2018-12-22T05:54:59.176Z,6.37
2018-12-22T05:57:28.115Z,5.97
2018-12-22T06:00:00.737Z,6.63
2018-12-22T06:02:28.428Z,5.78
2018-12-22T06:04:57.711Z,6.23
2018-12-22T06:07:26.939Z,6.20
2018-12-22T06:09:56.232Z,6.70
2018-12-22T06:12:25.613Z,7.63
2018-12-22T06:14:54.486Z,6.47
2018-12-22T06:17:23.311Z,5.93
2018-12-22T06:19:52.595Z,7.07
2018-12-22T06:22:21.970Z,5.87
2018-12-22T06:24:51.263Z,6.17
2018-12-22T06:27:20.519Z,7.73
2018-12-22T06:29:49.893Z,6.57
2018-12-22T06:32:20.039Z,7.00
2018-12-22T06:34:49.417Z,7.07
2018-12-22T06:37:18.720Z,7.33
2018-12-22T06:39:48.025Z,7.30
2018-12-22T06:42:16.944Z,7.07
2018-12-22T06:44:45.771Z,6.63
2018-12-22T06:47:14.956Z,7.00
2018-12-22T06:49:44.243Z,7.80
2018-12-22T06:52:13.595Z,6.90
2018-12-22T06:54:42.899Z,6.77
2018-12-22T06:57:12.301Z,6.60
2018-12-22T06:59:41.547Z,6.60
2018-12-22T07:02:10.831Z,6.97
2018-12-22T07:04:40.071Z,8.43
2018-12-22T07:07:09.340Z,7.07
2018-12-22T07:09:38.668Z,6.23
2018-12-22T07:12:07.962Z,6.80
2018-12-22T07:14:37.246Z,7.25
2018-12-22T07:17:06.187Z,7.30
2018-12-22T07:19:35.386Z,6.23
2018-12-22T07:22:04.311Z,6.70
2018-12-22T07:24:33.576Z,7.25
2018-12-22T07:27:02.850Z,7.30
2018-12-22T07:29:32.091Z,8.37
2018-12-22T07:32:01.476Z,9.73
2018-12-22T07:34:30.723Z,7.37
2018-12-22T07:36:59.978Z,6.67
2018-12-22T07:39:28.924Z,8.43
2018-12-22T07:41:58.776Z,8.63
2018-12-22T07:44:28.047Z,7.73
2018-12-22T07:46:57.930Z,8.03
2018-12-22T07:49:26.722Z,8.27
2018-12-22T07:51:55.546Z,8.07
2018-12-22T07:54:24.738Z,8.23
2018-12-22T07:56:54.006Z,7.53
2018-12-22T07:59:23.291Z,9.13
2018-12-22T08:01:52.555Z,8.00
2018-12-22T08:04:21.435Z,9.20
2018-12-22T08:06:50.597Z,8.13
2018-12-22T08:09:19.885Z,7.80
2018-12-22T08:11:49.176Z,9.70
2018-12-22T08:14:19.011Z,7.87
2018-12-22T08:16:48.168Z,8.43
2018-12-22T08:19:17.130Z,7.13
2018-12-22T08:21:46.286Z,8.80
2018-12-22T08:24:15.556Z,5.97
2018-12-22T08:26:44.474Z,7.00
2018-12-22T08:29:13.756Z,6.60
2018-12-22T08:31:42.628Z,6.30
2018-12-22T08:34:11.510Z,5.73
2018-12-22T08:36:40.311Z,7.17
2018-12-22T08:39:09.143Z,5.80
2018-12-22T08:41:38.299Z,6.17
2018-12-22T08:44:07.187Z,5.70
2018-12-22T08:46:36.011Z,6.10
2018-12-22T08:49:05.220Z,5.53
2018-12-22T08:51:34.540Z,4.40
2018-12-22T08:54:03.923Z,5.67
2018-12-22T08:56:32.819Z,5.40
2018-12-22T08:59:01.658Z,4.03
2018-12-22T09:01:30.444Z,4.60
2018-12-22T09:03:59.242Z,5.63
2018-12-22T09:06:28.438Z,4.58
2018-12-22T09:08:57.250Z,5.97
2018-12-22T09:11:26.079Z,4.57
2018-12-22T09:13:55.276Z,5.60
2018-12-22T09:16:24.564Z,5.50
2018-12-22T09:18:53.868Z,3.90
2018-12-22T09:21:22.806Z,5.10
2018-12-22T09:23:51.726Z,4.83
2018-12-22T09:26:20.654Z,4.33
2018-12-22T09:28:49.903Z,5.50
2018-12-22T09:31:19.735Z,4.65
2018-12-22T09:33:49.015Z,4.43
2018-12-22T09:36:17.918Z,5.10
2018-12-22T09:38:47.139Z,4.87
2018-12-22T09:41:16.080Z,4.70
2018-12-22T09:43:45.299Z,4.33
2018-12-22T09:46:14.289Z,4.37
2018-12-22T09:48:43.123Z,5.03
2018-12-22T09:51:12.277Z,4.07
2018-12-22T09:53:41.692Z,4.10
2018-12-22T09:56:10.953Z,4.77
2018-12-22T09:58:40.236Z,5.00
2018-12-22T10:01:09.731Z,4.10
2018-12-22T10:03:39.068Z,3.85
2018-12-22T10:06:07.975Z,4.13
2018-12-22T10:08:37.152Z,4.77
2018-12-22T10:11:06.550Z,4.13
2018-12-22T10:13:35.807Z,4.40
2018-12-22T10:16:04.691Z,4.43
2018-12-22T10:18:33.899Z,4.13
2018-12-22T10:21:02.868Z,4.50
2018-12-22T10:23:31.631Z,4.13
2018-12-22T10:26:00.802Z,4.77
2018-12-22T10:28:29.697Z,3.80
2018-12-22T10:30:58.900Z,3.90
2018-12-22T10:33:27.802Z,3.87
2018-12-22T10:35:57.231Z,3.70
2018-12-22T10:38:26.511Z,4.77
2018-12-22T10:40:55.855Z,4.80
2018-12-22T10:43:24.750Z,4.60
2018-12-22T10:45:53.538Z,4.57
2018-12-22T10:48:22.771Z,4.57
2018-12-22T10:50:51.679Z,5.13
2018-12-22T10:53:20.495Z,4.30
2018-12-22T10:55:49.680Z,3.93
2018-12-22T10:58:19.934Z,4.47
2018-12-22T11:00:48.811Z,4.43
2018-12-22T11:03:17.611Z,3.60
2018-12-22T11:05:46.406Z,4.10
2018-12-22T11:08:15.270Z,4.20
2018-12-22T11:10:44.427Z,3.87
2018-12-22T11:13:13.679Z,4.90
2018-12-22T11:15:42.559Z,4.27
2018-12-22T11:18:12.479Z,2.83
2018-12-22T11:20:41.339Z,4.20
2018-12-22T11:23:10.516Z,4.07
2018-12-22T11:25:39.387Z,4.33
2018-12-22T11:28:08.563Z,3.73
2018-12-22T11:30:39.578Z,3.40
2018-12-22T11:33:08.754Z,4.47
2018-12-22T11:35:38.003Z,3.72
2018-12-22T11:38:07.316Z,4.40
2018-12-22T11:40:36.195Z,3.67
2018-12-22T11:43:05.367Z,4.03
2018-12-22T11:45:34.366Z,3.60
2018-12-22T11:48:44.682Z,4.77
2018-12-22T11:51:13.955Z,4.30
2018-12-22T11:53:43.217Z,4.33
2018-12-22T11:56:12.103Z,4.57
2018-12-22T11:58:41.312Z,4.00
2018-12-22T12:01:10.187Z,3.97
2018-12-22T12:03:39.374Z,4.47
2018-12-22T12:06:08.631Z,4.33
2018-12-22T12:08:38.043Z,3.77
2018-12-22T12:11:07.271Z,4.30
2018-12-22T12:13:36.185Z,4.47
2018-12-22T12:16:09.698Z,5.27
2018-12-22T12:19:41.669Z,4.50
2018-12-22T12:22:10.818Z,5.30
2018-12-22T12:24:39.717Z,3.77
2018-12-22T12:27:08.570Z,4.07
2018-12-22T12:29:37.375Z,5.07
2018-12-22T12:32:06.531Z,3.67
2018-12-22T12:34:35.886Z,4.50
2018-12-22T12:37:05.430Z,4.53
2018-12-22T12:39:34.807Z,5.30
2018-12-22T12:42:03.690Z,5.27
2018-12-22T12:44:32.498Z,4.00
2018-12-22T12:47:01.684Z,4.37
2018-12-22T12:49:30.623Z,3.83
2018-12-22T12:51:59.835Z,3.67
2018-12-22T12:54:28.767Z,3.67
2018-12-22T12:56:58.583Z,4.20
2018-12-22T12:59:29.867Z,3.53
2018-12-22T13:02:01.229Z,3.97
2018-12-22T13:04:30.366Z,4.50
2018-12-22T13:06:59.560Z,3.90
2018-12-22T13:09:28.442Z,5.42
2018-12-22T13:11:58.886Z,4.23
2018-12-22T13:14:28.055Z,4.23
2018-12-22T13:16:57.111Z,4.43
2018-12-22T13:19:25.899Z,4.12
2018-12-22T13:21:55.706Z,4.40
2018-12-22T13:24:25.159Z,4.80
2018-12-22T13:26:54.063Z,4.47
2018-12-22T13:29:23.277Z,5.08
2018-12-22T13:31:52.211Z,4.10
2018-12-22T13:34:21.475Z,5.53
2018-12-22T13:36:50.740Z,3.80
2018-12-22T13:39:22.271Z,3.77
2018-12-22T13:41:51.489Z,4.07
2018-12-22T13:44:20.802Z,4.77
2018-12-22T13:46:50.137Z,4.03
2018-12-22T13:49:20.030Z,3.40
2018-12-22T13:51:49.326Z,4.83
2018-12-22T13:54:22.775Z,3.87
2018-12-22T13:56:51.635Z,4.10
2018-12-22T13:59:20.479Z,4.00
2018-12-22T14:02:00.283Z,3.87
2018-12-22T14:04:31.168Z,3.93
2018-12-22T14:07:00.468Z,4.17
2018-12-22T14:09:29.731Z,3.70
2018-12-22T14:11:58.970Z,3.73
2018-12-22T14:14:32.283Z,3.47
2018-12-22T14:17:05.186Z,3.83
2018-12-22T14:19:34.756Z,3.90
2018-12-22T14:22:04.303Z,4.63
2018-12-22T14:24:35.337Z,4.08
2018-12-22T14:27:04.192Z,4.03
2018-12-22T14:29:33.022Z,4.30
2018-12-22T14:32:02.239Z,4.50
2018-12-22T14:34:40.640Z,4.87
2018-12-22T14:37:09.995Z,4.60
2018-12-22T14:39:39.247Z,4.57
2018-12-22T14:42:08.711Z,3.97
2018-12-22T14:44:37.739Z,5.00
2018-12-22T14:47:06.963Z,6.07
2018-12-22T14:49:36.393Z,4.80
2018-12-22T14:52:05.262Z,4.00
2018-12-22T14:54:34.098Z,4.10
2018-12-22T14:57:02.943Z,4.37
2018-12-22T14:59:31.775Z,5.23
2018-12-22T15:02:01.201Z,4.10
2018-12-22T15:04:30.466Z,3.55
2018-12-22T15:06:59.402Z,6.70
2018-12-22T15:09:28.575Z,8.00
2018-12-22T15:11:57.450Z,6.90
2018-12-22T15:14:26.636Z,5.70
2018-12-22T15:16:55.879Z,5.90
2018-12-22T15:19:25.410Z,6.10
2018-12-22T15:21:56.612Z,5.10
2018-12-22T15:24:25.771Z,5.17
2018-12-22T15:26:54.700Z,7.33
2018-12-22T15:29:23.547Z,5.57
2018-12-22T15:31:52.832Z,5.20
2018-12-22T15:34:21.738Z,4.60
2018-12-22T15:36:50.535Z,4.87
2018-12-22T15:39:19.835Z,5.37
2018-12-22T15:41:49.043Z,4.57
2018-12-22T15:44:20.069Z,4.15
2018-12-22T15:46:49.003Z,5.47
2018-12-22T15:49:20.292Z,4.43
2018-12-22T15:51:49.614Z,5.77
2018-12-22T15:54:18.477Z,5.07
2018-12-22T15:56:47.653Z,5.30
2018-12-22T15:59:16.954Z,5.10
2018-12-22T16:01:45.874Z,5.03
2018-12-22T16:04:15.244Z,4.70
2018-12-22T16:06:44.555Z,5.07
2018-12-22T16:09:13.852Z,5.90
2018-12-22T16:11:42.736Z,5.67
2018-12-22T16:14:11.993Z,6.45
2018-12-22T16:16:41.291Z,5.30
2018-12-22T16:19:10.628Z,4.87
2018-12-22T16:21:40.337Z,4.53
2018-12-22T16:24:09.221Z,5.47
2018-12-22T16:26:38.018Z,5.37
2018-12-22T16:29:16.151Z,4.30
2018-12-22T16:31:45.108Z,6.13
2018-12-22T16:34:13.907Z,5.87
2018-12-22T16:36:43.059Z,6.30
2018-12-22T16:39:12.400Z,7.03
2018-12-22T16:41:41.556Z,5.60
2018-12-22T16:44:12.475Z,5.10
2018-12-22T16:46:41.640Z,4.87
2018-12-22T16:49:10.515Z,5.03
2018-12-22T16:51:39.752Z,4.80
2018-12-22T16:54:09.143Z,6.50
2018-12-22T16:56:38.547Z,5.53
2018-12-22T16:59:07.559Z,4.97
2018-12-22T17:01:45.566Z,6.20
2018-12-22T17:04:14.763Z,5.23
2018-12-22T17:06:44.012Z,4.40
2018-12-22T17:09:12.919Z,5.67
2018-12-22T17:11:41.724Z,5.37
2018-12-22T17:14:10.959Z,5.37
2018-12-22T17:16:40.844Z,5.40
2018-12-22T17:19:10.219Z,5.50
2018-12-22T17:21:44.634Z,5.37
2018-12-22T17:24:17.511Z,7.37
2018-12-22T17:26:47.003Z,6.10
2018-12-22T17:29:15.882Z,5.53
2018-12-22T17:31:44.733Z,5.30
2018-12-22T17:34:14.203Z,5.57
2018-12-22T17:36:43.524Z,6.17
2018-12-22T17:39:13.140Z,5.90
2018-12-22T17:41:48.598Z,5.93
2018-12-22T17:44:17.389Z,5.87
2018-12-22T17:46:46.608Z,4.97
2018-12-22T17:49:15.855Z,6.23
2018-12-22T17:51:45.165Z,5.10
2018-12-22T17:54:14.427Z,4.97
2018-12-22T17:56:43.753Z,4.87
2018-12-22T17:59:12.630Z,5.83
2018-12-22T18:01:41.898Z,5.00
2018-12-22T18:04:11.572Z,5.47
2018-12-22T18:06:40.829Z,4.60
2018-12-22T18:09:10.319Z,4.97
2018-12-22T18:11:39.203Z,5.93
2018-12-22T18:14:08.003Z,5.23
2018-12-22T18:16:36.863Z,6.47
2018-12-22T18:19:06.100Z,6.33
2018-12-22T18:21:34.971Z,5.25
2018-12-22T18:24:03.786Z,4.80
2018-12-22T18:26:32.960Z,5.35
2018-12-22T18:29:01.830Z,5.33
2018-12-22T18:31:30.689Z,6.10
2018-12-22T18:33:59.490Z,4.07
2018-12-22T18:36:28.336Z,5.27
2018-12-22T18:38:57.119Z,4.90
2018-12-22T18:41:25.906Z,5.78
2018-12-22T18:43:54.730Z,5.67
2018-12-22T18:46:23.771Z,5.27
2018-12-22T18:48:52.952Z,4.37
2018-12-22T18:51:22.356Z,4.70
2018-12-22T18:53:51.541Z,4.63
2018-12-22T18:56:20.446Z,5.27
2018-12-22T18:58:49.637Z,4.53
2018-12-22T19:01:19.823Z,5.13
2018-12-22T19:03:48.707Z,5.37
2018-12-22T19:06:18.311Z,4.53
2018-12-22T19:08:47.403Z,4.37
2018-12-22T19:11:17.200Z,5.03
2018-12-22T19:13:46.019Z,4.50
2018-12-22T19:16:14.900Z,5.20
2018-12-22T19:18:44.115Z,4.33
2018-12-22T19:21:13.442Z,5.37
2018-12-22T19:23:42.296Z,4.80
2018-12-22T19:26:11.098Z,4.60
2018-12-22T19:28:40.481Z,4.73
2018-12-22T19:31:09.812Z,4.47
2018-12-22T19:33:38.686Z,4.93
2018-12-22T19:36:07.552Z,5.57
2018-12-22T19:38:36.426Z,5.17
2018-12-22T19:41:05.318Z,5.23
2018-12-22T19:43:34.103Z,4.63
2018-12-22T19:46:02.914Z,4.40
2018-12-22T19:48:32.079Z,4.10
2018-12-22T19:51:01.340Z,4.20
2018-12-22T19:53:30.242Z,5.60
2018-12-22T19:55:59.059Z,4.27
2018-12-22T19:58:28.279Z,4.40
2018-12-22T20:00:57.227Z,4.03
2018-12-22T20:03:26.455Z,4.73
2018-12-22T20:05:56.108Z,4.87
2018-12-22T20:08:25.021Z,4.50
2018-12-22T20:10:54.179Z,3.50
2018-12-22T20:13:23.059Z,4.43
2018-12-22T20:15:52.203Z,4.03
2018-12-22T20:18:21.544Z,4.90
2018-12-22T20:21:00.494Z,4.60
2018-12-22T20:23:29.668Z,4.87
2018-12-22T20:25:58.755Z,4.73
2018-12-22T20:28:27.929Z,5.30
2018-12-22T20:30:56.854Z,3.93
2018-12-22T20:33:25.688Z,4.00
2018-12-22T20:35:54.851Z,3.93
2018-12-22T20:38:24.076Z,4.60
2018-12-22T20:40:53.019Z,5.53
2018-12-22T20:43:21.819Z,5.00
2018-12-22T20:45:51.020Z,5.57
2018-12-22T20:48:20.261Z,5.60
2018-12-22T20:50:49.499Z,4.47
2018-12-22T20:53:19.319Z,4.30
2018-12-22T20:55:48.157Z,6.07
2018-12-22T20:58:17.329Z,4.40
2018-12-22T21:00:46.580Z,5.60
2018-12-22T21:03:17.525Z,5.50
2018-12-22T21:05:50.045Z,5.20
2018-12-22T21:08:19.363Z,4.27
2018-12-22T21:10:48.162Z,3.57
2018-12-22T21:13:17.354Z,4.70
2018-12-22T21:15:46.430Z,4.73
2018-12-22T21:18:15.258Z,5.13
2018-12-22T21:20:44.103Z,5.23
2018-12-22T21:23:13.374Z,4.67
2018-12-22T21:25:42.624Z,4.60
2018-12-22T21:28:12.914Z,4.20
2018-12-22T21:30:42.209Z,3.97
2018-12-22T21:33:11.598Z,5.50
2018-12-22T21:35:40.923Z,5.13
2018-12-22T21:38:10.175Z,4.93
2018-12-22T21:40:39.054Z,4.57
2018-12-22T21:43:08.256Z,5.57
2018-12-22T21:45:37.223Z,6.07
2018-12-22T21:48:06.511Z,5.63
2018-12-22T21:50:35.809Z,5.10
2018-12-22T21:53:05.207Z,6.53
2018-12-22T21:55:34.219Z,4.65
2018-12-22T21:58:03.003Z,7.20
2018-12-22T22:00:32.374Z,5.23
2018-12-22T22:03:01.287Z,5.87
2018-12-22T22:05:31.339Z,6.37
2018-12-22T22:08:00.636Z,7.03
2018-12-22T22:10:29.874Z,5.95
2018-12-22T22:12:59.104Z,5.63
2018-12-22T22:15:28.474Z,5.73
2018-12-22T22:17:57.349Z,5.60
2018-12-22T22:20:26.520Z,6.23
2018-12-22T22:22:55.771Z,6.50
2018-12-22T22:25:24.675Z,4.50
2018-12-22T22:27:53.503Z,5.13
2018-12-22T22:30:22.675Z,5.40
2018-12-22T22:32:51.963Z,5.73
2018-12-22T22:35:21.227Z,5.60
2018-12-22T22:37:50.459Z,5.13
2018-12-22T22:40:20.350Z,5.58
2018-12-22T22:42:49.215Z,5.83
2018-12-22T22:45:18.412Z,5.00
2018-12-22T22:47:47.312Z,4.77
2018-12-22T22:50:16.124Z,4.90
2018-12-22T22:52:45.953Z,5.90
2018-12-22T22:55:15.333Z,4.73
2018-12-22T22:57:44.247Z,5.12
2018-12-22T23:00:20.610Z,5.70
2018-12-22T23:02:49.559Z,4.67
2018-12-22T23:05:18.764Z,5.20
2018-12-22T23:07:47.962Z,4.90
2018-12-22T23:10:17.155Z,4.67
2018-12-22T23:12:46.399Z,4.70
2018-12-22T23:15:15.752Z,4.50
2018-12-22T23:17:45.011Z,4.60
2018-12-22T23:20:14.379Z,4.43
2018-12-22T23:22:43.636Z,5.07
2018-12-22T23:25:12.977Z,4.43
2018-12-22T23:27:41.903Z,5.63
2018-12-22T23:30:11.168Z,4.40
2018-12-22T23:32:40.068Z,5.07
2018-12-22T23:35:09.224Z,4.37
2018-12-22T23:37:38.126Z,6.10
2018-12-22T23:40:07.706Z,5.10
2018-12-22T23:42:36.844Z,5.20
2018-12-22T23:45:07.620Z,3.90
2018-12-22T23:47:36.890Z,4.70
2018-12-22T23:50:07.011Z,4.07
2018-12-22T23:52:36.274Z,4.80
2018-12-22T23:55:05.828Z,4.93
2018-12-22T23:57:35.087Z,4.53
